Time;durP1;ratioP1;P1;durP2;ratioP2;P2;SDS_P1;SDS_P2;PMS_P1;PMS_P2;Temp;Humidity;BMP_temperature;BMP_pressure;BME280_temperature;BME280_humidity;BME280_pressure;Samples;Min_cycle;Max_cycle;Signal;HPM_P1;HPM_P2
2023/12/09 00:01:26;;;;;;;19.25;7.43;;;;;;;-12.33;58.71;101734.00;5078298;28;20025;-57
2023/12/09 00:03:52;;;;;;;33.97;12.88;;;;;;;-12.45;59.32;101722.28;5082604;28;20024;-55
2023/12/09 00:06:22;;;;;;;35.75;13.38;;;;;;;-12.45;59.70;101724.88;5078692;28;20037;-52
2023/12/09 00:08:50;;;;;;;28.77;10.90;;;;;;;-12.20;59.02;101717.34;5077860;28;20035;-54
2023/12/09 00:11:16;;;;;;;27.45;11.50;;;;;;;-12.39;59.40;101693.31;5080692;28;20139;-53
2023/12/09 00:13:42;;;;;;;19.27;8.02;;;;;;;-12.04;59.27;101716.28;5086256;28;20107;-53
2023/12/09 00:16:08;;;;;;;22.50;8.00;;;;;;;-11.95;58.35;101721.81;5076138;28;20457;-55
2023/12/09 00:18:34;;;;;;;33.88;10.63;;;;;;;-12.02;58.18;101714.66;5082361;28;20040;-54
2023/12/09 00:21:00;;;;;;;33.60;13.43;;;;;;;-12.32;58.42;101663.47;5078865;28;20044;-53
2023/12/09 00:23:27;;;;;;;33.58;12.57;;;;;;;-12.29;58.82;101685.16;5076972;28;20076;-51
2023/12/09 00:25:53;;;;;;;31.92;10.85;;;;;;;-12.10;58.63;101698.81;5081105;28;20048;-56
2023/12/09 00:28:19;;;;;;;28.45;11.55;;;;;;;-12.23;58.84;101697.41;5092647;28;20037;-57
2023/12/09 00:30:44;;;;;;;35.25;12.85;;;;;;;-12.19;59.37;101682.94;5064897;28;20500;-55
2023/12/09 00:33:11;;;;;;;28.55;10.85;;;;;;;-12.08;58.84;101702.34;5080439;28;20120;-56
2023/12/09 00:35:43;;;;;;;32.70;12.77;;;;;;;-12.09;58.81;101671.31;5084252;28;20100;-54
2023/12/09 00:38:09;;;;;;;24.20;9.35;;;;;;;-12.12;58.68;101679.81;5095490;28;20462;-57
2023/12/09 00:40:35;;;;;;;32.70;13.25;;;;;;;-12.21;59.15;101692.34;5080009;28;20040;-57
2023/12/09 00:43:00;;;;;;;24.20;9.45;;;;;;;-12.09;59.12;101677.34;5087834;28;20024;-58
2023/12/09 00:45:26;;;;;;;29.17;11.15;;;;;;;-12.07;58.75;101680.00;5097616;28;20116;-57
2023/12/09 00:47:52;;;;;;;32.25;12.50;;;;;;;-12.07;58.53;101680.00;5074019;28;20042;-58
2023/12/09 00:50:17;;;;;;;19.00;9.13;;;;;;;-12.04;58.50;101670.69;5079644;28;20371;-57
2023/12/09 00:52:43;;;;;;;34.22;13.07;;;;;;;-12.11;58.60;101671.25;5083008;28;20618;-61
2023/12/09 00:55:09;;;;;;;32.28;13.18;;;;;;;-12.22;58.76;101670.78;5075865;28;20093;-60
2023/12/09 00:57:35;;;;;;;23.65;9.18;;;;;;;-12.15;59.25;101678.00;5086634;28;20032;-57
2023/12/09 01:00:00;;;;;;;29.27;11.57;;;;;;;-12.01;59.10;101681.16;5081581;28;20043;-59
2023/12/09 01:02:26;;;;;;;27.70;10.65;;;;;;;-12.23;58.45;101622.53;5077660;28;20032;-58
2023/12/09 01:04:52;;;;;;;32.15;12.65;;;;;;;-12.14;59.00;101659.09;5083129;28;20450;-56
2023/12/09 01:07:17;;;;;;;31.88;12.57;;;;;;;-12.11;58.83;101668.66;5092868;28;20036;-56
2023/12/09 01:09:43;;;;;;;34.72;12.25;;;;;;;-12.06;58.91;101656.81;5093514;28;20028;-57
2023/12/09 01:12:09;;;;;;;30.08;12.13;;;;;;;-12.03;58.88;101667.28;5092911;28;20039;-54
2023/12/09 01:14:34;;;;;;;33.92;12.85;;;;;;;-12.06;58.61;101656.81;5092967;28;20055;-57
2023/12/09 01:17:00;;;;;;;20.67;7.63;;;;;;;-12.02;58.36;101660.41;5093944;28;20031;-58
2023/12/09 01:19:25;;;;;;;31.83;12.25;;;;;;;-12.05;58.52;101656.03;5093232;28;20040;-57
2023/12/09 01:21:51;;;;;;;22.42;9.95;;;;;;;-12.06;58.45;101649.06;5082996;28;20454;-56
2023/12/09 01:24:18;;;;;;;27.45;10.00;;;;;;;-12.05;58.12;101650.84;5075152;28;20032;-56
2023/12/09 01:26:43;;;;;;;30.52;11.68;;;;;;;-12.16;58.22;101670.16;5082363;28;20054;-58
2023/12/09 01:29:09;;;;;;;21.50;8.48;;;;;;;-12.24;58.45;101650.91;5075669;28;20033;-57
2023/12/09 01:31:35;;;;;;;19.08;7.80;;;;;;;-12.20;58.18;101657.94;5080726;28;20089;-54
2023/12/09 01:34:00;;;;;;;35.53;13.23;;;;;;;-12.36;58.90;101641.81;5083532;28;20032;-58
2023/12/09 01:36:26;;;;;;;27.58;10.48;;;;;;;-12.28;58.64;101635.28;5074846;28;20036;-56
2023/12/09 01:38:51;;;;;;;22.50;8.63;;;;;;;-12.22;58.57;101650.13;5074189;28;20032;-54
2023/12/09 01:41:17;;;;;;;35.72;12.07;;;;;;;-12.24;58.28;101638.84;5089184;28;20470;-55
2023/12/09 01:43:48;;;;;;;24.17;8.80;;;;;;;-12.18;58.38;101626.19;5092585;28;20032;-53
2023/12/09 01:46:14;;;;;;;31.33;12.55;;;;;;;-12.32;58.98;101632.50;5075281;28;20033;-56
2023/12/09 01:48:40;;;;;;;31.48;12.30;;;;;;;-12.50;59.08;101611.97;5075199;28;20029;-53
2023/12/09 01:51:07;;;;;;;33.70;12.85;;;;;;;-12.29;59.42;101638.69;5086861;28;20119;-55
2023/12/09 01:53:34;;;;;;;28.35;9.50;;;;;;;-11.99;58.53;101638.16;5092323;28;20041;-58
2023/12/09 01:56:03;;;;;;;29.90;9.60;;;;;;;-12.01;57.97;101642.41;5077956;28;20111;-55
2023/12/09 01:58:30;;;;;;;29.88;12.15;;;;;;;-12.29;57.89;101615.44;5092637;28;20029;-57
2023/12/09 02:00:56;;;;;;;25.77;9.30;;;;;;;-12.47;58.10;101587.16;5078434;28;20028;-57
2023/12/09 02:03:22;;;;;;;23.70;8.70;;;;;;;-12.28;57.53;101631.81;5091109;28;20087;-58
2023/12/09 02:05:48;;;;;;;31.73;12.27;;;;;;;-12.41;58.31;101630.41;5080688;28;20604;-56
2023/12/09 02:08:13;;;;;;;20.55;7.75;;;;;;;-12.28;58.14;101618.91;5073841;28;20094;-59
2023/12/09 02:10:39;;;;;;;30.70;11.77;;;;;;;-12.32;58.25;101625.63;5086622;28;20107;-56
2023/12/09 02:13:05;;;;;;;22.40;8.40;;;;;;;-12.31;58.49;101631.69;5093778;28;20059;-56
2023/12/09 02:15:39;;;;;;;15.02;6.43;;;;;;;-12.39;58.79;101610.69;5083504;28;20042;-56
2023/12/09 02:18:07;;;;;;;23.77;9.88;;;;;;;-12.34;58.18;101626.41;5092214;28;20025;-56
2023/12/09 02:20:33;;;;;;;28.70;12.07;;;;;;;-12.30;58.51;101629.16;5086391;28;20025;-55
2023/12/09 02:23:12;;;;;;;35.20;13.50;;;;;;;-12.32;58.12;101610.13;5072784;28;20451;-56
2023/12/09 02:25:39;;;;;;;27.70;9.68;;;;;;;-12.28;58.34;101631.81;5073800;28;20078;-53
2023/12/09 02:28:20;;;;;;;25.67;8.52;;;;;;;-12.22;57.81;101620.88;5084509;28;20396;-58
2023/12/09 02:30:55;;;;;;;27.80;12.32;;;;;;;-12.49;57.93;101624.03;5071662;28;20084;-54
2023/12/09 02:33:22;;;;;;;20.60;6.57;;;;;;;-12.58;58.30;101611.63;5074457;28;20111;-53
2023/12/09 02:35:51;;;;;;;26.02;10.48;;;;;;;-12.40;58.16;101614.09;5090167;28;20024;-57
2023/12/09 02:38:18;;;;;;;20.05;7.43;;;;;;;-12.38;58.06;101607.31;5086447;28;20043;-56
2023/12/09 02:40:45;;;;;;;31.15;11.05;;;;;;;-12.51;57.90;101580.09;5077673;28;20367;-59
2023/12/09 02:43:13;;;;;;;22.65;8.35;;;;;;;-12.38;58.35;101606.44;5092672;28;20062;-57
2023/12/09 02:45:38;;;;;;;26.50;10.77;;;;;;;-12.66;58.39;101594.91;5078691;28;20875;-54
2023/12/09 02:48:04;;;;;;;11.50;4.75;;;;;;;-12.31;58.48;101598.13;5088900;28;20028;-57
2023/12/09 02:50:31;;;;;;;19.73;7.85;;;;;;;-12.34;58.23;101606.59;5077877;28;20508;-58
2023/12/09 02:52:56;;;;;;;16.88;5.18;;;;;;;-12.23;58.12;101617.38;5087309;28;20031;-54
2023/12/09 02:55:22;;;;;;;20.33;6.78;;;;;;;-12.33;57.97;101618.69;5074521;28;20081;-59
2023/12/09 02:57:47;;;;;;;24.42;9.43;;;;;;;-12.43;57.96;101599.34;5089640;28;20421;-58
2023/12/09 03:00:14;;;;;;;22.17;7.50;;;;;;;-12.33;58.04;101615.25;5078411;28;20024;-54
2023/12/09 03:02:39;;;;;;;21.33;8.38;;;;;;;-12.29;58.09;101638.69;5087530;28;20032;-63
2023/12/09 03:05:05;;;;;;;19.77;7.22;;;;;;;-12.29;57.58;101610.28;5079974;28;20054;-52
2023/12/09 03:07:31;;;;;;;24.63;9.90;;;;;;;-12.51;58.17;101616.22;5073380;28;20085;-59
2023/12/09 03:09:56;;;;;;;26.05;8.75;;;;;;;-12.45;58.08;101608.72;5083557;28;20054;-58
2023/12/09 03:12:22;;;;;;;20.70;9.27;;;;;;;-12.47;58.99;101609.50;5072903;28;20074;-59
2023/12/09 03:14:48;;;;;;;32.53;11.38;;;;;;;-12.42;58.48;101615.75;5079372;28;20080;-60
2023/12/09 03:17:13;;;;;;;23.92;9.57;;;;;;;-12.43;58.93;101608.81;5080568;28;20104;-56
2023/12/09 03:19:39;;;;;;;28.15;11.27;;;;;;;-12.26;58.41;101613.00;5085377;28;20140;-53
2023/12/09 03:22:04;;;;;;;20.33;7.20;;;;;;;-12.19;58.09;101613.25;5072502;28;20032;-60
2023/12/09 03:24:30;;;;;;;15.82;6.55;;;;;;;-12.21;57.77;101604.56;5072967;28;20027;-58
2023/12/09 03:26:56;;;;;;;25.52;9.75;;;;;;;-12.44;58.07;101594.16;5089253;28;20056;-53
2023/12/09 03:29:22;;;;;;;19.67;7.78;;;;;;;-12.28;58.07;101604.31;5082830;28;20028;-55
2023/12/09 03:31:48;;;;;;;28.45;9.93;;;;;;;-12.48;58.00;101579.34;5074935;28;20059;-54
2023/12/09 03:34:14;;;;;;;28.70;11.13;;;;;;;-12.55;58.52;101589.41;5081183;28;20039;-58
2023/12/09 03:36:40;;;;;;;27.98;10.48;;;;;;;-12.39;58.54;101597.78;5072530;28;20060;-58
2023/12/09 03:39:06;;;;;;;27.40;10.20;;;;;;;-12.42;58.52;101589.94;5081477;28;20056;-60
2023/12/09 03:41:35;;;;;;;20.50;6.72;;;;;;;-12.28;58.16;101604.31;5087240;28;20031;-54
2023/12/09 03:44:02;;;;;;;24.58;10.43;;;;;;;-12.35;58.23;101591.06;5072367;28;20101;-57
2023/12/09 03:46:28;;;;;;;29.27;10.13;;;;;;;-12.28;58.27;101604.31;5082554;28;20140;-59
2023/12/09 03:48:54;;;;;;;28.17;10.80;;;;;;;-12.34;58.34;101598.00;5088972;28;20032;-56
2023/12/09 03:51:20;;;;;;;19.90;6.80;;;;;;;-12.23;57.97;101595.88;5075463;28;20033;-56
2023/12/09 03:53:45;;;;;;;24.88;8.45;;;;;;;-12.33;58.32;101594.59;5071254;28;20040;-56
2023/12/09 03:56:11;;;;;;;22.52;9.45;;;;;;;-12.37;58.11;101578.09;5079560;28;20048;-50
2023/12/09 03:58:37;;;;;;;15.02;5.95;;;;;;;-12.23;57.93;101596.72;5081808;28;20111;-50
2023/12/09 04:01:03;;;;;;;28.63;11.25;;;;;;;-12.42;58.17;101595.09;5082175;28;20033;-55
2023/12/09 04:03:29;;;;;;;26.77;11.00;;;;;;;-12.42;58.38;101596.00;5081032;28;20036;-57
2023/12/09 04:05:54;;;;;;;29.23;11.70;;;;;;;-12.45;58.51;101600.13;5085612;28;20020;-57
2023/12/09 04:08:20;;;;;;;7.93;3.92;;;;;;;-12.35;58.74;101599.69;5079171;28;20131;-56
2023/12/09 04:10:46;;;;;;;31.10;12.25;;;;;;;-12.22;57.64;101590.75;5080273;28;20055;-54
2023/12/09 04:13:12;;;;;;;21.90;8.05;;;;;;;-12.17;58.29;101593.53;5076146;28;20358;-54
2023/12/09 04:15:40;;;;;;;21.08;8.32;;;;;;;-12.18;57.81;101599.50;5083822;28;20024;-55
2023/12/09 04:18:06;;;;;;;25.77;10.60;;;;;;;-12.32;58.46;101592.06;5080353;28;20116;-58
2023/12/09 04:20:32;;;;;;;19.20;7.30;;;;;;;-12.19;58.51;101598.63;5086920;28;20028;-57
2023/12/09 04:22:57;;;;;;;23.95;9.02;;;;;;;-12.29;57.89;101587.06;5085346;28;20036;-60
2023/12/09 04:25:24;;;;;;;22.10;8.50;;;;;;;-12.30;58.49;101602.47;5082183;28;20024;-59
2023/12/09 04:27:51;;;;;;;21.77;9.85;;;;;;;-12.24;58.19;101604.44;5087353;28;20040;-59
2023/12/09 04:30:17;;;;;;;25.08;10.70;;;;;;;-12.21;58.23;101597.66;5085961;28;20112;-56
2023/12/09 04:32:43;;;;;;;18.00;7.15;;;;;;;-12.17;58.12;101603.84;5085946;28;20040;-59
2023/12/09 04:35:09;;;;;;;17.08;6.05;;;;;;;-12.18;57.72;101597.78;5092417;28;20028;-56
2023/12/09 04:37:35;;;;;;;23.60;7.95;;;;;;;-12.21;57.51;101583.91;5083976;28;20364;-57
2023/12/09 04:40:04;;;;;;;20.88;8.80;;;;;;;-12.23;57.51;101591.56;5090717;28;20140;-58
2023/12/09 04:42:30;;;;;;;24.33;10.02;;;;;;;-12.29;57.92;101606.81;5095428;28;20153;-57
2023/12/09 04:44:55;;;;;;;19.05;6.57;;;;;;;-12.24;58.03;101594.97;5080672;28;20066;-57
2023/12/09 04:47:21;;;;;;;21.58;8.05;;;;;;;-12.25;57.49;101613.84;5075108;28;20052;-57
2023/12/09 04:49:47;;;;;;;24.20;9.98;;;;;;;-12.38;57.57;101601.28;5078660;28;20417;-58
2023/12/09 04:52:12;;;;;;;21.20;8.35;;;;;;;-12.44;57.83;101587.28;5087817;28;20451;-55
2023/12/09 04:54:38;;;;;;;24.17;10.80;;;;;;;-12.42;58.22;101608.91;5088106;28;20384;-57
2023/12/09 04:57:04;;;;;;;23.30;9.68;;;;;;;-12.46;58.58;101588.03;5081969;28;20032;-55
2023/12/09 04:59:30;;;;;;;24.30;9.52;;;;;;;-12.26;57.82;101607.81;5091650;28;20028;-55
2023/12/09 05:01:56;;;;;;;28.10;11.55;;;;;;;-12.35;57.91;101607.44;5079247;28;20039;-55
2023/12/09 05:04:21;;;;;;;22.55;9.88;;;;;;;-12.60;58.27;101553.91;5086762;28;20396;-54
2023/12/09 05:06:47;;;;;;;21.80;9.73;;;;;;;-12.35;58.00;101602.25;5091294;28;20028;-57
2023/12/09 05:09:13;;;;;;;22.70;7.72;;;;;;;-12.18;58.20;101620.16;5079488;28;20024;-60
2023/12/09 05:11:39;;;;;;;25.85;11.27;;;;;;;-12.18;57.70;101604.66;5081351;28;20020;-59
2023/12/09 05:14:05;;;;;;;15.82;5.65;;;;;;;-12.43;58.01;101558.06;5076048;28;20141;-52
2023/12/09 05:16:32;;;;;;;22.10;9.45;;;;;;;-12.22;58.03;101618.28;5089921;28;20081;-53
2023/12/09 05:18:57;;;;;;;22.45;7.72;;;;;;;-12.12;57.65;101623.00;5078650;28;20028;-54
2023/12/09 05:21:23;;;;;;;22.73;8.13;;;;;;;-12.08;57.18;101621.44;5089359;28;20020;-55
2023/12/09 05:23:49;;;;;;;24.45;8.13;;;;;;;-12.19;57.19;101616.69;5080905;28;20032;-56
2023/12/09 05:26:26;;;;;;;19.63;8.88;;;;;;;-12.23;57.78;101611.34;5083825;28;20059;-56
2023/12/09 05:28:53;;;;;;;24.98;10.02;;;;;;;-12.28;57.94;101619.78;5077560;28;20463;-55
2023/12/09 05:31:20;;;;;;;26.80;8.35;;;;;;;-12.18;57.63;101625.31;5087240;28;20111;-55
2023/12/09 05:33:46;;;;;;;17.98;6.68;;;;;;;-12.20;58.33;101612.34;5074684;28;20051;-56
2023/12/09 05:36:12;;;;;;;26.45;10.90;;;;;;;-12.32;58.27;101609.25;5090131;28;20054;-55
2023/12/09 05:38:38;;;;;;;24.05;8.35;;;;;;;-12.32;58.54;101586.03;5084489;28;20060;-59
2023/12/09 05:41:07;;;;;;;26.67;10.75;;;;;;;-12.09;58.35;101609.34;5079242;28;20458;-56
2023/12/09 05:43:35;;;;;;;24.55;9.70;;;;;;;-12.10;58.02;101626.50;5075497;28;20024;-59
2023/12/09 05:46:01;;;;;;;25.65;10.35;;;;;;;-12.17;58.38;101612.50;5074080;28;20141;-52
2023/12/09 05:48:26;;;;;;;9.88;3.30;;;;;;;-12.02;58.26;101627.75;5074147;28;20039;-53
2023/12/09 05:50:52;;;;;;;26.00;10.20;;;;;;;-12.08;57.92;101618.84;5090081;28;20036;-52
2023/12/09 05:53:18;;;;;;;20.63;7.72;;;;;;;-12.00;57.94;101626.06;5094700;28;20019;-58
2023/12/09 05:55:43;;;;;;;20.52;7.70;;;;;;;-12.05;57.92;101617.28;5079269;28;20112;-57
2023/12/09 05:58:09;;;;;;;15.93;7.20;;;;;;;-11.95;57.51;101625.38;5074184;28;20029;-59
2023/12/09 06:00:34;;;;;;;22.25;8.15;;;;;;;-12.13;58.00;101619.53;5075386;28;20032;-57
2023/12/09 06:03:00;;;;;;;25.90;8.95;;;;;;;-12.18;57.90;101607.25;5086986;28;20366;-53
2023/12/09 06:05:25;;;;;;;25.20;9.60;;;;;;;-12.38;58.78;101584.06;5078491;28;20458;-56
2023/12/09 06:07:51;;;;;;;24.10;9.88;;;;;;;-12.01;58.34;101623.44;5093962;28;20046;-58
2023/12/09 06:10:16;;;;;;;25.08;10.15;;;;;;;-12.05;58.29;101596.63;5080873;28;20503;-61
2023/12/09 06:12:42;;;;;;;15.55;4.93;;;;;;;-11.74;58.52;101628.81;5082138;28;20417;-58
2023/12/09 06:15:08;;;;;;;23.00;10.32;;;;;;;-11.75;58.00;101621.88;5083134;28;20428;-54
2023/12/09 06:17:33;;;;;;;21.10;8.43;;;;;;;-11.77;58.12;101617.47;5093646;28;20028;-57
2023/12/09 06:19:59;;;;;;;25.70;9.52;;;;;;;-11.61;57.44;101634.44;5086318;28;20033;-58
2023/12/09 06:22:25;;;;;;;27.67;10.40;;;;;;;-11.70;57.42;101619.47;5082077;28;20035;-58
2023/12/09 06:24:51;;;;;;;26.60;10.60;;;;;;;-11.82;57.13;101615.59;5086625;28;20059;-53
2023/12/09 06:27:20;;;;;;;24.02;9.70;;;;;;;-11.90;57.56;101611.81;5074196;28;20378;-56
2023/12/09 06:29:46;;;;;;;28.17;10.27;;;;;;;-11.92;58.28;101615.16;5075805;28;20374;-56
2023/12/09 06:32:13;;;;;;;23.75;8.77;;;;;;;-11.78;57.89;101608.84;5091096;28;20020;-56
2023/12/09 06:34:38;;;;;;;25.95;10.23;;;;;;;-11.84;57.64;101611.16;5088275;28;20110;-56
2023/12/09 06:37:04;;;;;;;23.77;10.32;;;;;;;-11.68;57.55;101608.38;5073027;28;20097;-58
2023/12/09 06:39:29;;;;;;;23.38;7.68;;;;;;;-11.57;57.29;101595.88;5083597;28;20036;-57
2023/12/09 06:41:55;;;;;;;12.35;5.57;;;;;;;-11.50;57.12;101602.16;5079206;28;20033;-58
2023/12/09 06:44:21;;;;;;;25.27;10.80;;;;;;;-11.69;56.37;101605.75;5084632;28;20025;-56
2023/12/09 06:46:47;;;;;;;17.75;7.78;;;;;;;-11.72;57.07;101598.75;5059383;28;20047;-57
2023/12/09 06:49:13;;;;;;;27.75;10.68;;;;;;;-11.80;56.84;101597.56;5077826;28;20109;-53
2023/12/09 06:51:41;;;;;;;27.65;10.63;;;;;;;-11.86;57.14;101581.81;5087356;28;20599;-58
2023/12/09 06:54:06;;;;;;;14.88;4.95;;;;;;;-11.67;56.70;101573.09;5079296;28;20090;-56
2023/12/09 06:56:32;;;;;;;19.48;6.88;;;;;;;-11.75;56.63;101575.38;5082494;28;20350;-60
2023/12/09 06:58:58;;;;;;;15.65;4.88;;;;;;;-11.69;56.46;101585.94;5093101;28;20020;-56
2023/12/09 07:01:26;;;;;;;16.33;6.05;;;;;;;-11.77;56.09;101595.09;5093263;28;20431;-58
2023/12/09 07:03:52;;;;;;;25.17;10.25;;;;;;;-11.98;56.65;101579.63;5093197;28;20027;-60
2023/12/09 07:06:26;;;;;;;18.98;7.93;;;;;;;-11.92;56.62;101566.06;5092327;28;20035;-53
2023/12/09 07:08:53;;;;;;;28.23;10.82;;;;;;;-12.23;57.25;101557.13;5093110;28;20023;-59
2023/12/09 07:11:21;;;;;;;20.92;8.82;;;;;;;-12.10;57.54;101561.97;5082292;28;20036;-52
2023/12/09 07:13:47;;;;;;;23.90;9.57;;;;;;;-12.03;57.68;101535.59;5072943;28;20028;-49
2023/12/09 07:16:13;;;;;;;22.00;9.73;;;;;;;-12.22;57.30;101495.22;5072458;28;20028;-53
2023/12/09 07:18:43;;;;;;;21.52;9.88;;;;;;;-12.16;57.25;101489.41;5072845;28;20024;-53
2023/12/09 07:21:10;;;;;;;15.52;6.38;;;;;;;-11.53;57.18;101552.94;5072672;28;20032;-52
2023/12/09 07:23:36;;;;;;;18.70;7.60;;;;;;;-11.45;56.34;101556.69;5072217;28;20450;-54
2023/12/09 07:26:02;;;;;;;19.50;7.95;;;;;;;-11.52;55.76;101559.88;5082213;28;20028;-49
2023/12/09 07:28:31;;;;;;;13.88;5.80;;;;;;;-11.62;55.61;101581.00;5093070;28;20036;-51
2023/12/09 07:30:57;;;;;;;24.33;8.52;;;;;;;-11.79;55.89;101559.69;5092392;28;20100;-54
2023/12/09 07:33:23;;;;;;;27.77;10.10;;;;;;;-12.01;56.23;101538.19;5089620;28;20032;-54
2023/12/09 07:35:49;;;;;;;22.50;7.28;;;;;;;-11.94;56.57;101553.06;5072885;28;20447;-51
2023/12/09 07:38:15;;;;;;;20.40;8.02;;;;;;;-11.84;56.64;101551.75;5072558;28;20051;-52
2023/12/09 07:40:41;;;;;;;14.40;7.25;;;;;;;-11.72;56.97;101541.00;5081163;28;20422;-54
2023/12/09 07:43:07;;;;;;;15.85;6.28;;;;;;;-11.57;56.35;101539.00;5092281;28;20032;-51
2023/12/09 07:45:33;;;;;;;23.67;9.82;;;;;;;-11.56;56.31;101542.50;5086308;28;20036;-51
2023/12/09 07:48:00;;;;;;;23.05;9.27;;;;;;;-11.81;56.35;101495.06;5072416;28;20024;-51
2023/12/09 07:50:25;;;;;;;28.17;10.52;;;;;;;-11.50;56.21;101539.22;5072113;28;20097;-49
2023/12/09 07:52:51;;;;;;;21.88;10.18;;;;;;;-11.40;55.88;101542.22;5054916;28;20029;-53
2023/12/09 07:55:17;;;;;;;20.25;8.02;;;;;;;-11.40;55.69;101536.19;5080367;28;20028;-52
2023/12/09 07:57:42;;;;;;;18.90;7.90;;;;;;;-11.49;55.79;101536.72;5090249;28;20025;-52
2023/12/09 08:00:09;;;;;;;11.77;4.03;;;;;;;-11.40;55.68;101568.06;5076073;28;20033;-51
2023/12/09 08:02:35;;;;;;;14.15;4.80;;;;;;;-11.50;54.99;101563.38;5092662;28;20399;-70
2023/12/09 08:05:01;;;;;;;12.70;5.35;;;;;;;-11.60;54.47;101553.50;5088749;28;20048;-54
2023/12/09 08:07:27;;;;;;;21.40;9.07;;;;;;;-11.90;55.47;101564.44;5100378;28;20131;-68
2023/12/09 08:09:52;;;;;;;22.88;8.23;;;;;;;-11.86;55.78;101535.31;5096124;28;20039;-66
2023/12/09 08:12:18;;;;;;;21.60;7.95;;;;;;;-11.68;55.58;101542.91;5091733;28;20024;-66
2023/12/09 08:14:43;;;;;;;19.77;6.97;;;;;;;-11.55;55.60;101549.41;5091934;28;20107;-64
2023/12/09 08:17:09;;;;;;;19.15;8.15;;;;;;;-11.49;55.39;101549.63;5092113;28;20118;-65
2023/12/09 08:19:35;;;;;;;23.38;9.70;;;;;;;-11.50;55.39;101547.88;5090169;28;20043;-65
2023/12/09 08:22:00;;;;;;;24.55;7.88;;;;;;;-11.49;55.45;101547.06;5072757;28;20044;-66
2023/12/09 08:24:27;;;;;;;14.45;6.30;;;;;;;-11.51;54.86;101552.97;5072325;28;20051;-61
2023/12/09 08:26:53;;;;;;;5.28;3.20;;;;;;;-11.76;55.19;101501.25;5071665;28;20097;-60
2023/12/09 08:29:20;;;;;;;22.45;8.93;;;;;;;-11.60;55.48;101532.84;5070765;28;20119;-63
2023/12/09 08:31:49;;;;;;;21.60;10.13;;;;;;;-11.48;54.87;101537.59;5071252;28;20029;-65
2023/12/09 08:34:17;;;;;;;22.77;9.40;;;;;;;-11.57;55.02;101532.97;5071224;28;20043;-59
2023/12/09 08:36:44;;;;;;;20.25;7.30;;;;;;;-11.53;54.95;101514.16;5071545;28;20052;-63
2023/12/09 08:39:10;;;;;;;19.10;6.20;;;;;;;-11.52;55.10;101512.44;5072515;28;20100;-56
2023/12/09 08:41:37;;;;;;;17.58;6.40;;;;;;;-11.61;55.23;101497.47;5070998;28;20048;-60
2023/12/09 08:44:03;;;;;;;22.80;10.27;;;;;;;-11.66;55.12;101507.66;5071391;28;20035;-53
2023/12/09 08:46:30;;;;;;;17.85;6.28;;;;;;;-11.64;55.61;101521.53;5072339;28;20033;-58
2023/12/09 08:48:55;;;;;;;12.10;5.00;;;;;;;-11.62;55.50;101500.88;5078411;28;20025;-65
2023/12/09 08:51:21;;;;;;;16.45;7.32;;;;;;;-11.62;55.51;101522.44;5094623;28;20111;-56
2023/12/09 08:53:47;;;;;;;23.38;8.48;;;;;;;-11.71;55.36;101502.31;5092726;28;20028;-62
2023/12/09 08:56:12;;;;;;;18.42;7.63;;;;;;;-11.97;55.54;101447.97;5075136;28;20190;-65
2023/12/09 08:58:38;;;;;;;11.32;4.65;;;;;;;-11.47;55.80;101510.91;5074714;28;20120;-64
2023/12/09 09:01:04;;;;;;;29.77;10.25;;;;;;;-11.55;55.63;101483.09;5074674;28;20098;-65
2023/12/09 09:03:30;;;;;;;23.05;9.00;;;;;;;-11.50;55.71;101484.94;5073889;28;20036;-62
2023/12/09 09:05:56;;;;;;;27.58;11.48;;;;;;;-11.50;55.80;101497.88;5075213;28;20032;-63
2023/12/09 09:08:22;;;;;;;22.63;9.27;;;;;;;-11.58;56.43;101489.84;5075304;28;20093;-64
2023/12/09 09:10:49;;;;;;;26.08;10.57;;;;;;;-11.33;56.27;101503.66;5092910;28;20028;-62
2023/12/09 09:13:15;;;;;;;22.55;9.70;;;;;;;-11.31;56.53;101484.78;5095224;28;20059;-61
2023/12/09 09:15:40;;;;;;;30.52;10.50;;;;;;;-10.97;55.85;101495.44;5093111;28;20435;-64
2023/12/09 09:18:06;;;;;;;26.90;10.90;;;;;;;-10.84;55.40;101491.56;5076385;28;20047;-62
2023/12/09 09:20:32;;;;;;;20.80;8.98;;;;;;;-10.72;55.21;101504.06;5074423;28;20115;-61
2023/12/09 09:22:58;;;;;;;28.25;10.07;;;;;;;-10.76;55.17;101481.50;5075945;28;20440;-64
2023/12/09 09:25:23;;;;;;;23.42;8.65;;;;;;;-10.68;54.61;101487.78;5075102;28;20105;-57
2023/12/09 09:27:49;;;;;;;12.30;5.28;;;;;;;-10.71;55.28;101505.81;5074082;28;20052;-55
2023/12/09 09:30:15;;;;;;;25.73;10.10;;;;;;;-10.72;54.53;101475.56;5074209;28;20044;-58
2023/12/09 09:32:40;;;;;;;26.33;10.27;;;;;;;-10.90;54.92;101471.53;5074217;28;20078;-55
2023/12/09 09:35:07;;;;;;;17.90;5.10;;;;;;;-10.83;55.11;101475.22;5075745;28;20040;-55
2023/12/09 09:37:34;;;;;;;24.10;9.13;;;;;;;-10.99;54.55;101440.19;5093392;28;20093;-57
2023/12/09 09:40:04;;;;;;;20.08;8.13;;;;;;;-10.64;54.46;101466.34;5077220;28;20305;-55
2023/12/09 09:42:40;;;;;;;31.35;11.40;;;;;;;-10.76;55.00;101458.19;5072931;28;20044;-56
2023/12/09 09:45:08;;;;;;;25.33;10.30;;;;;;;-10.53;54.38;101472.78;5074441;28;20028;-54
2023/12/09 09:47:39;;;;;;;26.45;10.77;;;;;;;-10.54;54.68;101476.19;5073843;28;20106;-49
2023/12/09 09:50:08;;;;;;;22.30;9.25;;;;;;;-10.35;53.94;101469.00;5074016;28;20111;-54
2023/12/09 09:52:40;;;;;;;26.73;9.93;;;;;;;-10.44;54.27;101461.84;5074070;28;20059;-53
2023/12/09 09:55:07;;;;;;;16.45;7.07;;;;;;;-10.32;54.09;101455.25;5080139;28;20443;-51
2023/12/09 09:57:33;;;;;;;19.05;7.28;;;;;;;-10.25;53.79;101458.06;5093187;28;20059;-55
2023/12/09 10:00:00;;;;;;;20.13;8.73;;;;;;;-10.32;53.24;101456.13;5084688;28;20032;-54
2023/12/09 10:02:26;;;;;;;28.20;10.48;;;;;;;-10.43;53.46;101457.53;5085744;28;20024;-51
2023/12/09 10:04:52;;;;;;;26.67;9.25;;;;;;;-10.33;53.47;101449.19;5073307;28;20105;-60
2023/12/09 10:07:18;;;;;;;19.80;8.20;;;;;;;-10.21;53.43;101463.34;5074356;28;20123;-54
2023/12/09 10:09:44;;;;;;;27.02;10.93;;;;;;;-10.47;53.16;101451.38;5091045;28;20414;-53
2023/12/09 10:12:10;;;;;;;33.50;10.35;;;;;;;-10.49;52.84;101453.03;5094400;28;20052;-54
2023/12/09 10:14:35;;;;;;;23.83;10.20;;;;;;;-10.54;54.11;101460.66;5093696;28;20036;-57
2023/12/09 10:17:02;;;;;;;20.58;8.05;;;;;;;-10.28;53.17;101464.84;5093168;28;20115;-58
2023/12/09 10:19:28;;;;;;;20.55;7.85;;;;;;;-10.30;53.08;101454.47;5085173;28;20048;-54
2023/12/09 10:21:54;;;;;;;17.17;5.63;;;;;;;-10.38;52.70;101468.88;5074465;28;20067;-55
2023/12/09 10:24:19;;;;;;;21.45;9.02;;;;;;;-10.61;52.82;101458.72;5089297;28;20089;-53
2023/12/09 10:26:46;;;;;;;23.73;8.88;;;;;;;-10.71;53.28;101454.03;5092743;28;20044;-55
2023/12/09 10:29:12;;;;;;;21.52;9.68;;;;;;;-10.93;54.17;101445.56;5093023;28;20036;-53
2023/12/09 10:31:38;;;;;;;19.42;6.85;;;;;;;-10.87;53.92;101431.97;5093200;28;20036;-53
2023/12/09 10:34:04;;;;;;;21.65;8.50;;;;;;;-11.07;54.28;101420.97;5093358;28;20024;-55
2023/12/09 10:36:30;;;;;;;19.02;7.60;;;;;;;-11.01;54.15;101449.63;5092719;28;20024;-58
2023/12/09 10:38:59;;;;;;;17.02;7.15;;;;;;;-11.03;54.33;101443.50;5076585;28;20113;-57
2023/12/09 10:41:25;;;;;;;24.02;9.93;;;;;;;-11.23;54.74;101446.28;5073809;28;20112;-58
2023/12/09 10:43:54;;;;;;;15.88;6.53;;;;;;;-11.12;55.07;101433.72;5072131;28;20123;-56
2023/12/09 10:46:20;;;;;;;19.50;8.63;;;;;;;-11.19;55.15;101424.88;5071274;28;20803;-56
2023/12/09 10:48:45;;;;;;;24.98;10.50;;;;;;;-11.10;54.60;101429.47;5070262;28;20043;-58
2023/12/09 10:51:11;;;;;;;21.63;8.52;;;;;;;-11.39;54.54;101380.25;5070764;28;20432;-59
2023/12/09 10:53:37;;;;;;;25.08;9.45;;;;;;;-11.10;54.31;101417.41;5071027;28;20115;-56
2023/12/09 10:56:03;;;;;;;21.52;9.10;;;;;;;-11.35;54.85;101438.09;5076619;28;20028;-60
2023/12/09 10:58:29;;;;;;;22.23;8.55;;;;;;;-11.27;54.27;101419.44;5090737;28;20097;-58
2023/12/09 11:00:57;;;;;;;20.15;7.97;;;;;;;-11.33;54.57;101423.50;5091171;28;20031;-52
2023/12/09 11:03:24;;;;;;;21.55;9.32;;;;;;;-11.40;54.73;101415.53;5092680;28;20051;-58